Time;durP1;ratioP1;P1;durP2;ratioP2;P2;SDS_P1;SDS_P2;PMS_P1;PMS_P2;Temp;Humidity;BMP_temperature;BMP_pressure;BME280_temperature;BME280_humidity;BME280_pressure;Samples;Min_cycle;Max_cycle;Signal;HPM_P1;HPM_P2
2022/05/03 00:01:18;;;;;;;7.47;4.50;;;;;;;14.64;59.89;99529.19;5113087;28;20051;-38
2022/05/03 00:04:04;;;;;;;5.45;4.40;;;;;;;14.54;60.91;99523.56;5092813;28;20038;-37
2022/05/03 00:06:40;;;;;;;6.00;4.50;;;;;;;14.58;60.94;99526.63;5092693;28;20125;-37
2022/05/03 00:09:07;;;;;;;9.70;4.80;;;;;;;14.69;61.27;99522.31;5093079;28;20032;-39
2022/05/03 00:11:38;;;;;;;6.90;4.50;;;;;;;14.94;60.26;99519.34;5092699;28;20024;-39
2022/05/03 00:14:42;;;;;;;6.43;4.90;;;;;;;15.09;60.64;99516.16;5092729;28;20032;-39
2022/05/03 00:17:08;;;;;;;9.20;5.18;;;;;;;15.02;60.86;99516.28;5103738;28;20094;-37
2022/05/03 00:19:34;;;;;;;5.57;4.93;;;;;;;15.06;60.45;99517.44;5112772;28;20180;-38
2022/05/03 00:21:59;;;;;;;8.80;5.20;;;;;;;14.90;61.84;99513.63;5112728;28;20039;-37
2022/05/03 00:24:25;;;;;;;6.32;4.72;;;;;;;14.90;61.82;99518.19;5112852;28;20141;-38
2022/05/03 00:26:52;;;;;;;8.07;5.10;;;;;;;14.94;61.88;99517.47;5112745;28;20031;-37
2022/05/03 00:29:18;;;;;;;7.13;5.05;;;;;;;14.80;62.33;99518.78;5112613;28;20055;-38
2022/05/03 00:31:44;;;;;;;8.13;5.40;;;;;;;14.82;62.39;99511.34;5112833;28;20483;-38
2022/05/03 00:34:10;;;;;;;6.82;5.07;;;;;;;14.81;62.04;99518.56;5112546;28;20027;-38
2022/05/03 00:36:36;;;;;;;8.15;5.15;;;;;;;14.80;63.20;99516.13;5111467;28;20528;-38
2022/05/03 00:39:01;;;;;;;6.75;5.00;;;;;;;14.85;62.25;99511.69;5111135;28;20024;-38
2022/05/03 00:41:44;;;;;;;7.68;5.57;;;;;;;14.81;62.90;99521.25;5112364;28;20072;-38
2022/05/03 00:44:58;;;;;;;9.32;5.95;;;;;;;14.68;64.24;99516.16;5112336;28;20032;-37
2022/05/03 00:47:42;;;;;;;7.88;5.80;;;;;;;14.35;65.91;99520.19;5112702;28;20039;-38
2022/05/03 00:50:11;;;;;;;8.40;5.75;;;;;;;14.41;65.10;99508.59;5112349;28;20074;-38
2022/05/03 00:52:37;;;;;;;;;;;;;;;14.37;65.75;99514.63;5112143;28;20364;-38
2022/05/03 00:55:30;;;;;;;8.32;5.95;;;;;;;14.21;66.57;99516.16;5112161;28;19937;-38
2022/05/03 00:58:46;;;;;;;9.13;5.90;;;;;;;14.45;65.07;99512.41;5112442;28;20031;-37
2022/05/03 01:01:33;;;;;;;7.70;5.85;;;;;;;14.33;66.15;99511.59;5112257;28;20367;-37
2022/05/03 01:04:05;;;;;;;8.48;6.32;;;;;;;14.35;66.41;99512.16;5092014;28;20231;-38
2022/05/03 01:06:48;;;;;;;7.95;6.38;;;;;;;14.57;65.75;99511.63;5091779;28;20145;-38
2022/05/03 01:09:22;;;;;;;8.52;6.72;;;;;;;14.53;63.67;99508.56;5091083;28;20084;-38
2022/05/03 01:11:59;;;;;;;9.82;6.90;;;;;;;14.52;64.07;99506.91;5091993;28;20095;-38
2022/05/03 01:14:50;;;;;;;15.13;7.30;;;;;;;14.44;64.08;99505.41;5091526;28;20028;-37
2022/05/03 01:17:30;;;;;;;11.05;6.75;;;;;;;14.40;64.69;99504.25;5091727;28;20038;-38
2022/05/03 01:20:03;;;;;;;12.30;6.82;;;;;;;14.28;65.11;99503.47;5091429;28;20032;-38
2022/05/03 01:22:35;;;;;;;11.15;7.10;;;;;;;14.31;64.44;99505.66;5091645;28;20027;-38
2022/05/03 01:25:06;;;;;;;9.88;6.85;;;;;;;14.42;64.60;99504.84;5091846;28;20024;-38
2022/05/03 01:27:47;;;;;;;9.70;6.90;;;;;;;14.43;64.99;99501.13;5091022;28;20127;-38
2022/05/03 01:30:13;;;;;;;11.65;6.95;;;;;;;14.36;65.33;99500.44;5090798;28;20032;-38
2022/05/03 01:32:46;;;;;;;12.27;6.80;;;;;;;14.58;63.66;99499.84;5090966;28;20073;-38
2022/05/03 01:35:14;;;;;;;10.73;6.85;;;;;;;14.45;64.07;99499.03;5090890;28;20036;-38
2022/05/03 01:38:02;;;;;;;9.67;6.80;;;;;;;14.56;64.13;99501.91;5090934;28;20103;-38
2022/05/03 01:40:57;;;;;;;10.35;6.78;;;;;;;14.54;64.46;99498.66;5090806;28;20024;-38
2022/05/03 01:43:44;;;;;;;10.63;6.43;;;;;;;14.53;64.89;99500.53;5090620;28;20109;-38
2022/05/03 01:46:22;;;;;;;11.35;6.95;;;;;;;14.32;65.04;99495.75;5093495;28;20096;-39
2022/05/03 01:52:16;;;;;;;9.50;6.55;;;;;;;14.45;65.18;99503.56;5111155;28;20054;-36
2022/05/03 01:55:04;;;;;;;8.57;6.50;;;;;;;14.51;64.45;99499.97;5111143;28;20032;-37
2022/05/03 01:57:38;;;;;;;9.00;6.85;;;;;;;14.33;64.92;99500.09;5110917;28;20020;-37
2022/05/03 02:00:11;;;;;;;10.27;6.47;;;;;;;14.33;65.40;99503.56;5111118;28;20107;-37
2022/05/03 02:03:15;;;;;;;8.65;6.18;;;;;;;14.11;66.04;99502.50;5110752;28;20038;-37
2022/05/03 02:05:51;;;;;;;10.30;6.72;;;;;;;14.15;66.49;99503.72;5114369;28;20048;-37
2022/05/03 02:08:21;;;;;;;8.50;6.60;;;;;;;14.31;65.32;99502.97;5115241;28;20074;-37
2022/05/03 02:11:22;;;;;;;7.60;6.22;;;;;;;14.41;64.71;99507.75;5115360;28;20031;-37
2022/05/03 02:17:01;;;;;;;10.85;6.95;;;;;;;14.46;65.64;99508.66;5115668;28;20030;-38
2022/05/03 02:19:35;;;;;;;7.13;5.90;;;;;;;14.36;64.84;99513.81;5115570;28;20080;-37
2022/05/03 02:22:27;;;;;;;8.80;6.22;;;;;;;14.47;64.99;99510.31;5115092;28;20031;-37
2022/05/03 02:25:37;;;;;;;8.88;5.85;;;;;;;14.43;65.82;99513.69;5075673;28;20124;-37
2022/05/03 02:28:23;;;;;;;9.38;5.60;;;;;;;14.47;64.69;99512.19;5075574;28;20415;-37
2022/05/03 02:30:51;;;;;;;9.48;6.10;;;;;;;14.52;64.01;99514.94;5114802;28;20051;-37
2022/05/03 02:33:25;;;;;;;8.52;5.95;;;;;;;14.03;66.88;99511.69;5114614;28;20028;-37
2022/05/03 02:35:55;;;;;;;8.40;6.40;;;;;;;14.04;67.52;99516.03;5114901;28;20028;-38
2022/05/03 02:38:28;;;;;;;7.65;5.85;;;;;;;13.96;66.92;99516.38;5114742;28;20070;-38
2022/05/03 02:40:58;;;;;;;10.18;6.82;;;;;;;14.26;66.34;99522.44;5115036;28;20134;-38
2022/05/03 02:43:26;;;;;;;9.98;6.60;;;;;;;14.34;65.39;99520.47;5114639;28;20031;-39
2022/05/03 02:46:39;;;;;;;9.32;6.40;;;;;;;14.17;66.01;99525.69;5114922;28;20080;-36
2022/05/03 02:49:11;;;;;;;10.10;6.97;;;;;;;14.22;66.25;99529.31;5037507;28;20047;-37
2022/05/03 02:51:47;;;;;;;11.18;6.28;;;;;;;14.32;66.29;99526.03;5114904;28;20032;-37
2022/05/03 02:54:23;;;;;;;9.98;7.45;;;;;;;14.27;67.05;99531.28;5114629;28;20038;-37
2022/05/03 02:56:59;;;;;;;8.52;6.45;;;;;;;14.25;66.63;99536.84;5114856;28;20034;-37
2022/05/03 03:02:33;;;;;;;9.50;7.28;;;;;;;14.33;66.90;99543.72;5114941;28;20033;-37
2022/05/03 03:05:12;;;;;;;8.00;6.75;;;;;;;14.30;66.56;99543.34;5114890;28;20042;-37
2022/05/03 03:07:52;;;;;;;9.05;6.43;;;;;;;14.25;66.54;99538.72;5114850;28;20031;-38
2022/05/03 03:10:22;;;;;;;10.20;6.95;;;;;;;14.31;67.00;99556.50;5114700;28;20085;-38
2022/05/03 03:12:55;;;;;;;9.55;6.72;;;;;;;14.37;65.91;99554.78;5114629;28;20053;-38
2022/05/03 03:15:27;;;;;;;9.43;6.85;;;;;;;14.23;66.39;99555.00;5114456;28;20019;-38
2022/05/03 03:17:54;;;;;;;11.10;7.30;;;;;;;14.26;66.40;99556.41;5114313;28;20028;-38
2022/05/03 03:20:27;;;;;;;10.07;7.80;;;;;;;14.27;66.72;99563.38;5114449;28;20019;-38
2022/05/03 03:22:53;;;;;;;11.15;8.13;;;;;;;14.24;67.66;99567.34;5114438;28;20073;-38
2022/05/03 03:25:20;;;;;;;9.05;7.68;;;;;;;14.32;66.85;99568.88;5114110;28;20023;-38
2022/05/03 03:27:48;;;;;;;13.48;6.90;;;;;;;14.21;66.17;99569.66;5114084;28;20027;-38
2022/05/03 03:30:15;;;;;;;9.30;6.50;;;;;;;14.14;66.61;99577.00;5114247;28;20519;-38
2022/05/03 03:32:47;;;;;;;10.63;6.88;;;;;;;14.08;67.13;99574.19;5095915;28;20034;-38
2022/05/03 03:35:15;;;;;;;9.05;6.80;;;;;;;14.25;66.54;99578.88;5114367;28;20023;-38
2022/05/03 03:37:45;;;;;;;9.27;7.00;;;;;;;14.30;66.21;99576.31;5114125;28;20452;-38
2022/05/03 03:40:13;;;;;;;8.80;6.20;;;;;;;14.21;66.66;99575.84;5114208;28;20042;-38
2022/05/03 03:42:39;;;;;;;9.90;7.05;;;;;;;14.45;66.77;99581.22;5113614;28;20039;-38
2022/05/03 03:45:08;;;;;;;9.07;6.80;;;;;;;14.45;66.84;99581.22;5113887;28;20027;-38
2022/05/03 03:47:35;;;;;;;9.55;6.57;;;;;;;14.59;65.54;99589.84;5114061;28;20057;-38
2022/05/03 03:50:01;;;;;;;7.32;5.65;;;;;;;14.32;65.68;99594.78;5113666;28;20028;-37
2022/05/03 03:52:27;;;;;;;11.75;6.45;;;;;;;14.20;66.32;99586.75;5113805;28;20502;-38
2022/05/03 03:54:54;;;;;;;8.88;6.70;;;;;;;14.17;67.04;99595.28;5113663;28;20024;-36
2022/05/03 03:57:21;;;;;;;9.23;7.32;;;;;;;14.07;68.29;99602.00;5113938;28;20024;-38
2022/05/03 03:59:47;;;;;;;10.20;7.13;;;;;;;14.17;68.25;99595.28;5113544;28;20035;-37
2022/05/03 04:02:14;;;;;;;10.57;7.18;;;;;;;14.30;67.02;99603.09;5113273;28;20153;-38
2022/05/03 04:04:40;;;;;;;12.07;7.40;;;;;;;14.48;65.97;99599.47;5113467;28;20451;-38
2022/05/03 04:07:06;;;;;;;8.77;6.93;;;;;;;14.72;64.90;99597.66;5113157;28;20156;-38
2022/05/03 04:09:32;;;;;;;9.00;6.95;;;;;;;14.56;64.77;99612.50;5112979;28;20479;-38
2022/05/03 04:12:00;;;;;;;11.52;8.20;;;;;;;14.51;65.19;99600.88;5113439;28;20416;-37
2022/05/03 04:14:26;;;;;;;10.90;7.43;;;;;;;14.65;65.37;99605.78;5113011;28;20395;-38
2022/05/03 04:16:52;;;;;;;12.95;8.18;;;;;;;14.62;66.14;99597.41;5113292;28;20161;-37
2022/05/03 04:19:17;;;;;;;19.65;15.00;;;;;;;14.65;67.17;99599.63;5112929;28;20023;-38
2022/05/03 04:21:42;;;;;;;28.27;20.27;;;;;;;14.67;67.23;99597.53;5112887;28;20026;-38
2022/05/03 04:24:08;;;;;;;26.67;19.25;;;;;;;14.71;67.42;99595.19;5112817;28;20118;-38
2022/05/03 04:26:34;;;;;;;13.18;9.00;;;;;;;14.65;67.65;99596.94;5112763;28;20040;-39
2022/05/03 04:29:01;;;;;;;10.80;7.20;;;;;;;14.78;67.12;99604.75;5112731;28;20027;-39
2022/05/03 04:31:28;;;;;;;8.80;6.60;;;;;;;14.93;66.26;99603.47;5112281;28;20063;-38
2022/05/03 04:33:54;;;;;;;13.77;6.57;;;;;;;15.02;65.76;99610.91;5112681;28;20110;-38
2022/05/03 04:36:21;;;;;;;11.23;6.53;;;;;;;15.13;65.63;99611.91;5112539;28;20498;-37
2022/05/03 04:38:50;;;;;;;8.73;7.07;;;;;;;14.76;66.74;99617.56;5112573;28;20107;-37
2022/05/03 04:41:15;;;;;;;8.77;6.67;;;;;;;14.65;66.22;99621.06;5112768;28;20028;-39
2022/05/03 04:43:41;;;;;;;9.95;6.40;;;;;;;14.64;65.90;99627.44;5112517;28;20452;-38
2022/05/03 04:46:07;;;;;;;14.70;10.95;;;;;;;14.70;65.22;99626.53;5112399;28;20406;-38
2022/05/03 04:48:32;;;;;;;7.45;5.40;;;;;;;14.76;63.36;99632.81;5112245;28;20100;-37
2022/05/03 04:50:58;;;;;;;5.40;3.22;;;;;;;14.56;59.83;99623.22;5112056;28;20059;-38
2022/05/03 04:53:23;;;;;;;6.45;4.10;;;;;;;14.66;61.01;99631.53;5111577;28;20049;-38
2022/05/03 04:55:49;;;;;;;6.38;3.80;;;;;;;14.34;65.15;99622.97;5110896;28;20067;-38
2022/05/03 04:58:15;;;;;;;74.13;46.88;;;;;;;14.47;63.56;99630.78;5092394;28;20042;-45
2022/05/03 05:00:41;;;;;;;33.28;23.40;;;;;;;14.54;63.95;99637.91;5091547;28;20023;-45
2022/05/03 05:03:07;;;;;;;8.52;6.95;;;;;;;14.60;62.45;99632.47;5107658;28;20019;-44
2022/05/03 05:05:32;;;;;;;6.65;4.50;;;;;;;14.68;62.15;99634.00;5112084;28;20052;-46
2022/05/03 05:08:05;;;;;;;9.02;5.03;;;;;;;14.61;64.82;99630.59;5111915;28;20030;-45
2022/05/03 05:10:32;;;;;;;13.23;8.48;;;;;;;14.64;64.71;99632.78;5112010;28;20072;-46
2022/05/03 05:13:01;;;;;;;12.75;7.97;;;;;;;14.78;64.50;99633.41;5112816;28;20027;-45
2022/05/03 05:15:28;;;;;;;9.18;5.55;;;;;;;14.43;65.04;99628.78;5112199;28;20074;-48
2022/05/03 05:17:58;;;;;;;14.10;9.55;;;;;;;14.65;64.32;99634.44;5112119;28;20177;-48
2022/05/03 05:20:25;;;;;;;12.80;7.95;;;;;;;14.79;63.48;99635.00;5112122;28;20046;-47
2022/05/03 05:22:51;;;;;;;4.43;3.70;;;;;;;14.81;61.87;99643.63;5111712;28;20117;-46
2022/05/03 05:25:17;;;;;;;8.65;3.30;;;;;;;14.54;60.55;99632.53;5111882;28;20062;-48
2022/05/03 05:27:43;;;;;;;7.03;3.75;;;;;;;14.55;61.24;99643.03;5111971;28;20059;-46
2022/05/03 05:30:09;;;;;;;7.65;3.65;;;;;;;14.71;61.02;99644.22;5111372;28;20024;-48
2022/05/03 05:32:36;;;;;;;4.70;3.53;;;;;;;14.82;61.02;99639.91;5111352;28;20364;-46
2022/05/03 05:35:03;;;;;;;6.50;3.90;;;;;;;14.67;62.24;99640.38;5111581;28;20031;-46
2022/05/03 05:37:29;;;;;;;6.90;4.07;;;;;;;14.57;63.22;99651.66;5111540;28;20023;-45
2022/05/03 05:39:54;;;;;;;6.78;4.57;;;;;;;14.55;63.64;99651.06;5110811;28;20023;-46
2022/05/03 05:42:19;;;;;;;6.32;4.65;;;;;;;14.33;64.76;99648.09;5111268;28;20096;-47
2022/05/03 05:44:45;;;;;;;6.43;4.90;;;;;;;14.33;64.92;99644.63;5108475;28;20084;-46
2022/05/03 05:47:13;;;;;;;6.68;4.80;;;;;;;14.63;63.83;99649.94;5111226;28;20027;-48
2022/05/03 05:49:39;;;;;;;6.28;4.32;;;;;;;14.52;63.91;99658.72;5111333;28;20065;-46
2022/05/03 05:54:49;;;;;;;9.35;5.00;;;;;;;14.43;65.02;99653.72;5111905;28;20177;-48
2022/05/03 05:57:15;;;;;;;6.82;5.40;;;;;;;14.45;64.71;99657.00;5111722;28;20051;-47
2022/05/03 05:59:41;;;;;;;7.95;5.57;;;;;;;14.43;65.16;99661.75;5111217;28;20387;-46
2022/05/03 06:02:07;;;;;;;9.40;5.57;;;;;;;14.12;66.03;99664.72;5111334;28;20077;-45
2022/05/03 06:04:33;;;;;;;8.93;6.03;;;;;;;14.24;65.45;99658.34;5111113;28;20096;-44
2022/05/03 06:06:59;;;;;;;8.20;5.72;;;;;;;14.17;66.44;99668.34;5111215;28;20499;-46
2022/05/03 06:09:24;;;;;;;10.38;5.82;;;;;;;14.06;66.50;99661.91;5111341;28;20055;-46
2022/05/03 06:11:50;;;;;;;6.88;4.50;;;;;;;14.11;64.93;99671.09;5111328;28;20107;-47
2022/05/03 06:14:15;;;;;;;7.15;4.43;;;;;;;13.92;65.62;99673.84;5092861;28;20020;-48
2022/05/03 06:16:52;;;;;;;5.97;4.47;;;;;;;14.22;64.07;99672.97;5111509;28;20027;-46
2022/05/03 06:19:18;;;;;;;6.28;4.40;;;;;;;13.94;64.13;99666.41;5111235;28;20024;-46
2022/05/03 06:21:43;;;;;;;6.57;4.38;;;;;;;14.04;64.26;99666.66;5111573;28;20111;-47
2022/05/03 06:24:10;;;;;;;8.20;4.50;;;;;;;14.28;63.65;99669.41;5111213;28;20031;-46
2022/05/03 06:26:35;;;;;;;5.88;4.70;;;;;;;14.43;64.39;99671.63;5111354;28;20487;-45
2022/05/03 06:29:08;;;;;;;5.80;4.82;;;;;;;14.23;66.20;99680.78;5111559;28;20102;-46
2022/05/03 06:31:37;;;;;;;5.90;4.68;;;;;;;13.64;67.46;99675.22;5110314;28;20705;-46
2022/05/03 06:34:06;;;;;;;5.25;4.50;;;;;;;13.65;66.55;99676.03;5110494;28;20074;-46
2022/05/03 06:36:33;;;;;;;7.35;5.00;;;;;;;14.02;65.68;99678.63;5111023;28;20435;-46
2022/05/03 06:38:59;;;;;;;7.30;4.93;;;;;;;13.64;66.72;99688.59;5110859;28;20032;-46
2022/05/03 06:41:24;;;;;;;5.93;4.63;;;;;;;14.01;66.19;99682.34;5111152;28;20020;-38
2022/05/03 06:43:50;;;;;;;6.88;4.93;;;;;;;14.08;65.93;99689.22;5110253;28;20049;-38
2022/05/03 06:46:17;;;;;;;6.63;4.40;;;;;;;13.66;66.84;99693.72;5110997;28;20443;-38
2022/05/03 06:48:43;;;;;;;8.98;4.38;;;;;;;13.92;66.60;99692.56;5110783;28;20031;-38
2022/05/03 06:51:08;;;;;;;6.47;4.65;;;;;;;14.11;66.63;99695.16;5110374;28;20019;-38
2022/05/03 06:53:35;;;;;;;8.25;4.82;;;;;;;14.10;66.55;99693.56;5114268;28;20153;-44
2022/05/03 06:56:00;;;;;;;6.82;5.30;;;;;;;14.31;66.31;99697.56;5114584;28;20066;-49
2022/05/03 06:58:26;;;;;;;5.97;4.80;;;;;;;14.33;66.42;99701.63;5114471;28;20047;-45
2022/05/03 07:00:51;;;;;;;6.43;5.10;;;;;;;14.24;66.00;99692.31;5114657;28;20033;-48
2022/05/03 07:03:17;;;;;;;10.63;5.22;;;;;;;14.00;67.71;99694.09;5114350;28;20052;-47
2022/05/03 07:05:43;;;;;;;8.43;5.30;;;;;;;13.89;68.04;99687.66;5114322;28;20093;-46
2022/05/03 07:08:09;;;;;;;7.65;5.57;;;;;;;13.98;68.02;99696.19;5114195;28;20020;-45
2022/05/03 07:10:35;;;;;;;8.77;4.95;;;;;;;13.72;68.19;99695.47;5114225;28;20501;-50
2022/05/03 07:13:00;;;;;;;6.15;4.82;;;;;;;13.38;69.12;99688.91;5114171;28;20031;-47
2022/05/03 07:15:27;;;;;;;7.43;5.32;;;;;;;13.58;70.67;99689.50;5114210;28;20027;-46
2022/05/03 07:23:24;;;;;;;7.32;4.97;;;;;;;13.65;68.66;99694.75;5113928;28;20498;-48
2022/05/03 07:25:50;;;;;;;6.07;4.60;;;;;;;13.36;69.46;99693.66;5113950;28;20209;-47
2022/05/03 07:28:16;;;;;;;7.05;5.13;;;;;;;13.14;70.06;99675.38;5113858;28;20128;-47
2022/05/03 07:30:42;;;;;;;13.27;5.70;;;;;;;13.32;70.24;99706.66;5113676;28;20404;-47
2022/05/03 07:33:08;;;;;;;7.22;5.28;;;;;;;13.40;69.80;99697.50;5113465;28;20547;-46
2022/05/03 07:35:33;;;;;;;6.95;4.75;;;;;;;13.83;68.60;99696.59;5113497;28;20107;-46
2022/05/03 07:37:59;;;;;;;6.40;4.60;;;;;;;13.46;69.18;99708.16;5113434;28;20019;-46
2022/05/03 07:40:24;;;;;;;7.30;4.88;;;;;;;13.76;68.71;99711.91;5113159;28;20415;-46
2022/05/03 07:42:50;;;;;;;6.88;5.00;;;;;;;13.84;68.58;99708.91;5112619;28;20027;-46
2022/05/03 07:45:15;;;;;;;6.03;4.50;;;;;;;13.64;68.29;99706.50;5111694;28;20407;-46
2022/05/03 07:47:41;;;;;;;8.75;4.22;;;;;;;13.44;68.32;99702.22;5113435;28;20027;-48
2022/05/03 07:50:07;;;;;;;7.40;4.03;;;;;;;13.08;70.04;99700.31;5112840;28;20023;-46
2022/05/03 07:52:35;;;;;;;4.80;3.72;;;;;;;13.40;69.47;99698.34;5112758;28;20110;-45
2022/05/03 07:55:02;;;;;;;6.10;4.03;;;;;;;13.82;68.13;99698.47;5112021;28;20019;-44
2022/05/03 07:57:27;;;;;;;5.22;3.78;;;;;;;14.39;66.61;99687.38;5112263;28;20372;-47
2022/05/03 07:59:54;;;;;;;5.40;3.90;;;;;;;14.10;67.01;99697.03;5113052;28;20092;-47
2022/05/03 08:02:22;;;;;;;6.50;3.97;;;;;;;14.13;68.18;99696.59;5111808;28;20042;-47
2022/05/03 08:04:49;;;;;;;6.63;4.55;;;;;;;14.30;67.15;99691.41;5112383;28;20032;-47
2022/05/03 08:07:15;;;;;;;5.85;4.35;;;;;;;14.54;66.55;99694.94;5111847;28;20052;-37
2022/05/03 08:09:40;;;;;;;5.05;3.65;;;;;;;14.76;65.45;99703.28;5111368;28;20440;-37
2022/05/03 08:12:06;;;;;;;5.53;4.15;;;;;;;14.34;67.45;99699.81;5112012;28;20035;-40
2022/05/03 08:14:32;;;;;;;12.43;8.52;;;;;;;14.65;76.63;99680.78;5111747;28;20031;-37
2022/05/03 08:16:58;;;;;;;6.80;5.10;;;;;;;14.89;67.67;99698.72;5111894;28;20034;-46
2022/05/03 08:19:24;;;;;;;6.85;4.35;;;;;;;14.66;66.69;99692.31;5096272;27;20395;-46
2022/05/03 08:21:52;;;;;;;5.03;3.70;;;;;;;13.98;67.20;99685.50;5128939;27;20019;-47
2022/05/03 08:24:18;;;;;;;4.35;3.50;;;;;;;14.25;65.94;99704.66;5119579;27;20141;-47
2022/05/03 08:26:44;;;;;;;5.45;3.90;;;;;;;14.55;65.21;99703.81;5132668;27;20019;-49
2022/05/03 08:29:10;;;;;;;5.80;4.03;;;;;;;14.92;65.01;99703.63;5118063;27;20514;-49
2022/05/03 08:31:35;;;;;;;5.72;3.85;;;;;;;14.87;65.22;99707.00;5129236;27;20031;-49
2022/05/03 08:34:02;;;;;;;4.85;4.03;;;;;;;15.08;63.95;99710.97;5117134;27;20034;-49
2022/05/03 08:36:31;;;;;;;5.25;4.25;;;;;;;15.16;63.23;99707.94;5123549;27;20028;-51
2022/05/03 08:44:25;;;;;;;4.63;3.85;;;;;;;14.51;63.82;99718.66;5120284;27;20042;-47
2022/05/03 08:46:53;;;;;;;5.15;3.95;;;;;;;14.41;64.61;99724.59;5119809;27;20032;-47
2022/05/03 08:49:21;;;;;;;5.20;3.72;;;;;;;14.28;64.93;99730.97;5127860;27;20098;-47
2022/05/03 08:51:50;;;;;;;4.60;4.10;;;;;;;14.64;64.50;99729.22;5115276;27;20019;-47
2022/05/03 08:54:16;;;;;;;5.85;4.15;;;;;;;14.63;63.60;99736.44;5124616;27;20034;-47
2022/05/03 08:56:41;;;;;;;5.90;4.32;;;;;;;14.73;63.53;99733.19;5122613;27;20027;-47
2022/05/03 08:59:08;;;;;;;5.35;4.07;;;;;;;15.00;62.30;99728.22;5117076;27;20509;-49
2022/05/03 09:01:35;;;;;;;6.25;3.95;;;;;;;14.86;61.90;99727.59;5126340;27;20049;-46
2022/05/03 09:04:00;;;;;;;4.75;3.90;;;;;;;14.90;62.87;99724.47;5116803;27;20031;-46
2022/05/03 09:06:46;;;;;;;5.53;3.90;;;;;;;15.15;63.12;99730.41;5122715;27;20063;-46
2022/05/03 09:09:13;;;;;;;8.10;4.13;;;;;;;15.18;61.12;99721.91;5127144;27;20051;-47
2022/05/03 09:11:46;;;;;;;5.88;4.50;;;;;;;14.93;63.02;99726.69;5114665;27;20034;-46
2022/05/03 09:14:13;;;;;;;8.60;4.90;;;;;;;14.72;63.22;99722.72;5131158;27;20031;-38
2022/05/03 09:16:49;;;;;;;8.88;4.50;;;;;;;14.56;63.93;99729.53;5120168;27;20504;-37
2022/05/03 09:19:25;;;;;;;7.28;4.68;;;;;;;14.37;64.46;99729.59;5126566;27;20118;-37
2022/05/03 09:24:55;;;;;;;6.40;4.30;;;;;;;15.15;62.61;99725.03;5121122;27;20135;-38
2022/05/03 09:27:21;;;;;;;6.25;4.07;;;;;;;15.31;61.08;99695.91;5127180;27;20019;-38
2022/05/03 09:30:06;;;;;;;5.90;4.25;;;;;;;15.22;60.49;99719.59;5113768;27;20441;-37
2022/05/03 09:32:40;;;;;;;7.43;4.10;;;;;;;15.34;60.72;99720.38;5113969;27;20027;-38
2022/05/03 09:35:07;;;;;;;7.95;4.10;;;;;;;15.57;60.98;99724.06;5124400;27;20570;-38
2022/05/03 09:37:42;;;;;;;6.28;4.18;;;;;;;15.51;60.89;99725.81;5113490;27;20084;-38
2022/05/03 09:40:09;;;;;;;5.78;4.10;;;;;;;15.48;60.91;99720.94;5130492;27;20019;-38
2022/05/03 09:42:36;;;;;;;6.57;3.80;;;;;;;15.74;60.37;99721.50;5094873;27;20500;-38
2022/05/03 09:45:05;;;;;;;5.10;3.70;;;;;;;15.95;60.61;99723.50;5104207;27;20024;-37
2022/05/03 09:47:46;;;;;;;5.65;3.72;;;;;;;16.13;59.82;99716.34;5126957;27;20019;-39
2022/05/03 09:50:23;;;;;;;4.20;3.53;;;;;;;16.29;58.03;99725.47;5103456;27;20105;-39
2022/05/03 09:52:50;;;;;;;4.25;3.35;;;;;;;16.08;56.77;99727.78;5123878;27;20050;-37
2022/05/03 09:55:27;;;;;;;5.95;3.60;;;;;;;16.26;55.95;99726.78;5114826;27;20024;-38
2022/05/03 09:57:52;;;;;;;4.32;3.08;;;;;;;16.31;52.45;99724.16;5087926;28;20115;-38
2022/05/03 10:00:18;;;;;;;3.20;2.75;;;;;;;15.94;52.90;99726.47;5110487;28;20100;-38
2022/05/03 10:02:45;;;;;;;3.45;3.00;;;;;;;15.42;53.82;99720.03;5111275;28;20123;-38
2022/05/03 10:05:11;;;;;;;4.25;3.47;;;;;;;15.53;54.72;99721.03;5111715;28;20047;-38
2022/05/03 10:07:38;;;;;;;7.40;3.78;;;;;;;15.60;55.33;99726.28;5113279;28;20076;-38
2022/05/03 10:10:08;;;;;;;4.93;3.28;;;;;;;15.83;54.32;99728.13;5110396;28;20039;-38
2022/05/03 10:12:35;;;;;;;5.15;3.50;;;;;;;15.90;54.02;99730.69;5110023;28;20034;-37
2022/05/03 10:15:01;;;;;;;3.92;3.25;;;;;;;16.08;54.24;99719.72;5107945;28;20511;-37
2022/05/03 10:23:33;;;;;;;4.30;3.88;;;;;;;16.62;55.57;99724.72;5091357;28;20497;-39
2022/05/03 10:26:08;;;;;;;4.55;3.58;;;;;;;16.86;55.26;99721.88;5101805;27;20343;-38
2022/05/03 10:29:09;;;;;;;4.05;3.10;;;;;;;16.92;54.01;99726.28;5124048;27;20506;-38
2022/05/03 10:31:56;;;;;;;5.43;3.53;;;;;;;16.88;54.61;99717.88;5087009;27;20046;-38
2022/05/03 10:34:53;;;;;;;4.55;3.25;;;;;;;16.93;53.69;99709.09;5110040;27;20030;-38
2022/05/03 10:37:25;;;;;;;4.05;2.90;;;;;;;17.06;52.20;99707.91;5117995;27;20383;-38
2022/05/03 10:39:58;;;;;;;3.85;3.03;;;;;;;16.85;52.25;99715.72;5101456;27;20255;-37
2022/05/03 10:42:33;;;;;;;5.32;3.35;;;;;;;17.16;52.38;99706.19;5125677;27;20380;-38
2022/05/03 10:45:12;;;;;;;5.47;3.40;;;;;;;17.13;52.62;99711.25;5126950;27;20027;-38
2022/05/03 10:47:49;;;;;;;4.22;3.42;;;;;;;17.07;50.24;99718.44;5117225;27;20036;-38
2022/05/03 10:50:17;;;;;;;7.20;3.50;;;;;;;16.83;51.17;99722.38;5126552;27;20028;-37
2022/05/03 10:53:01;;;;;;;9.75;3.78;;;;;;;17.04;51.79;99716.25;5124160;27;20362;-38
2022/05/03 10:55:29;;;;;;;4.18;3.35;;;;;;;17.29;52.31;99712.31;5117140;27;20092;-38
2022/05/03 10:58:28;;;;;;;4.40;3.33;;;;;;;17.44;51.38;99707.13;5130013;27;20054;-37
2022/05/03 11:01:20;;;;;;;6.45;3.50;;;;;;;17.50;51.94;99695.34;5126498;27;20442;-39
2022/05/03 11:03:49;;;;;;;5.15;3.67;;;;;;;17.52;51.92;99698.59;5130410;27;20051;-38
2022/05/03 11:06:18;;;;;;;4.55;3.80;;;;;;;17.66;51.75;99696.34;5121104;27;20054;-38
2022/05/03 11:11:39;;;;;;;4.63;3.30;;;;;;;17.30;49.12;99692.41;5130348;27;20118;-38
2022/05/03 11:14:21;;;;;;;4.30;2.95;;;;;;;17.25;51.63;99690.47;5118938;27;20029;-37
2022/05/03 11:17:03;;;;;;;3.72;3.20;;;;;;;17.78;50.34;99693.50;5133944;27;20047;-38
2022/05/03 11:19:30;;;;;;;4.82;3.72;;;;;;;18.03;50.35;99682.25;5116693;27;20030;-38
2022/05/03 11:21:56;;;;;;;4.90;3.40;;;;;;;18.33;50.28;99676.34;5129118;27;20141;-38
2022/05/03 11:24:26;;;;;;;9.07;5.82;;;;;;;18.42;49.72;99673.97;5113565;27;20059;-38
2022/05/03 11:26:58;;;;;;;8.40;4.18;;;;;;;18.16;50.88;99675.63;5112327;28;20031;-37
2022/05/03 11:29:37;;;;;;;5.65;3.45;;;;;;;18.44;49.46;99668.34;5130076;27;20023;-38
2022/05/03 11:32:06;;;;;;;3.95;3.40;;;;;;;18.08;49.38;99673.41;5118283;27;20015;-38
2022/05/03 11:34:32;;;;;;;3.42;2.78;;;;;;;18.01;47.03;99673.63;5124107;27;20105;-38
2022/05/03 11:36:57;;;;;;;4.65;3.58;;;;;;;18.22;48.45;99673.78;5125772;27;20461;-39
2022/05/03 11:39:23;;;;;;;5.80;3.55;;;;;;;18.72;46.82;99675.28;5116742;27;20067;-41
2022/05/03 11:41:49;;;;;;;9.00;5.63;;;;;;;18.94;46.42;99675.19;5112805;28;20090;-39
2022/05/03 11:44:16;;;;;;;7.50;3.78;;;;;;;18.63;48.29;99669.56;5119383;27;20103;-38
2022/05/03 11:46:43;;;;;;;5.28;3.30;;;;;;;19.07;45.68;99673.91;5122210;27;20028;-41
2022/05/03 11:49:12;;;;;;;3.40;2.97;;;;;;;19.32;44.90;99662.44;5128264;27;20034;-38
2022/05/03 11:57:32;;;;;;;3.10;2.53;;;;;;;19.71;44.10;99672.84;5112007;27;20134;-38
2022/05/03 11:59:59;;;;;;;3.45;2.50;;;;;;;20.07;42.25;99667.56;5113900;27;20019;-38
2022/05/03 12:02:28;;;;;;;6.22;2.60;;;;;;;20.28;42.71;99663.78;5113743;27;20031;-37
2022/05/03 12:05:06;;;;;;;2.63;2.42;;;;;;;20.52;40.69;99663.25;5113789;27;20035;-37
2022/05/03 12:07:42;;;;;;;3.05;1.90;;;;;;;20.89;40.50;99664.88;5114464;27;20031;-37
2022/05/03 12:10:27;;;;;;;3.72;2.20;;;;;;;21.03;40.77;99655.06;5117523;27;20023;-38
2022/05/03 12:13:10;;;;;;;3.13;2.47;;;;;;;21.16;38.99;99658.31;5120106;27;20098;-38
2022/05/03 12:15:50;;;;;;;2.83;2.20;;;;;;;20.85;38.26;99644.88;5114433;27;20122;-39
2022/05/03 12:18:19;;;;;;;3.22;2.30;;;;;;;20.53;39.90;99656.78;5112476;27;20510;-37
2022/05/03 12:20:51;;;;;;;3.45;2.28;;;;;;;20.46;40.11;99648.91;5111355;27;20043;-39
2022/05/03 12:23:25;;;;;;;4.15;2.40;;;;;;;20.45;41.98;99652.72;5113672;27;20033;-38
2022/05/03 12:25:55;;;;;;;3.13;2.20;;;;;;;20.45;40.90;99658.13;5113573;27;20026;-36
2022/05/03 12:28:37;;;;;;;2.70;2.30;;;;;;;20.74;40.30;99656.78;5110633;28;20096;-37
2022/05/03 12:31:05;;;;;;;3.42;2.28;;;;;;;20.51;40.88;99650.81;5113379;27;20130;-37